createdAt,value
2023-02-04T00:00:07.830Z,9.45
2023-02-04T00:02:34.895Z,10.80
2023-02-04T00:05:02.111Z,9.93
2023-02-04T00:07:29.153Z,10.43
2023-02-04T00:09:56.099Z,9.70
2023-02-04T00:12:24.646Z,10.43
2023-02-04T00:14:51.530Z,9.85
2023-02-04T00:17:18.407Z,10.10
2023-02-04T00:19:45.320Z,10.35
2023-02-04T00:22:12.285Z,10.82
2023-02-04T00:24:39.178Z,11.55
2023-02-04T00:27:07.632Z,10.07
2023-02-04T00:29:34.598Z,11.88
2023-02-04T00:32:01.812Z,10.63
2023-02-04T00:34:28.921Z,11.23
2023-02-04T00:36:55.894Z,12.00
2023-02-04T00:39:22.999Z,11.15
2023-02-04T00:41:49.951Z,10.15
2023-02-04T00:44:17.011Z,10.93
2023-02-04T00:46:44.016Z,11.05
2023-02-04T00:49:11.297Z,10.30
2023-02-04T00:51:39.859Z,11.55
2023-02-04T00:54:07.907Z,12.13
2023-02-04T00:56:35.014Z,10.77
2023-02-04T00:59:02.833Z,10.82
2023-02-04T01:01:29.785Z,10.25
2023-02-04T01:03:56.773Z,10.90
2023-02-04T01:06:24.131Z,10.32
2023-02-04T01:08:51.543Z,11.05
2023-02-04T01:11:19.154Z,11.20
2023-02-04T01:13:46.346Z,11.18
2023-02-04T01:16:13.673Z,11.55
2023-02-04T01:18:40.833Z,11.35
2023-02-04T01:21:07.878Z,10.80
2023-02-04T01:23:35.912Z,12.02
2023-02-04T01:26:03.011Z,12.27
2023-02-04T01:28:31.388Z,10.93
2023-02-04T01:30:58.886Z,10.45
2023-02-04T01:33:26.052Z,10.57
2023-02-04T01:35:53.058Z,11.25
2023-02-04T01:38:19.953Z,11.00
2023-02-04T01:40:47.799Z,10.75
2023-02-04T01:43:14.785Z,11.63
2023-02-04T01:45:41.910Z,11.82
2023-02-04T01:48:09.597Z,12.20
2023-02-04T01:50:37.424Z,12.60
2023-02-04T01:53:04.647Z,12.20
2023-02-04T01:55:34.094Z,12.10
2023-02-04T01:58:01.977Z,11.23
2023-02-04T02:00:33.503Z,9.73
2023-02-04T02:03:00.683Z,10.00
2023-02-04T02:05:40.578Z,9.32
2023-02-04T02:08:08.578Z,9.35
2023-02-04T02:10:40.067Z,8.63
2023-02-04T02:13:12.498Z,7.93
2023-02-04T02:15:40.567Z,8.27
2023-02-04T02:18:08.759Z,9.60
2023-02-04T02:20:36.836Z,10.48
2023-02-04T02:23:27.179Z,10.02
2023-02-04T02:25:54.147Z,9.05
2023-02-04T02:28:23.355Z,10.20
2023-02-04T02:30:51.197Z,8.70
2023-02-04T02:33:21.048Z,9.27
2023-02-04T02:35:48.878Z,8.50
2023-02-04T02:38:17.065Z,7.82
2023-02-04T02:40:44.490Z,7.05
2023-02-04T02:43:17.819Z,7.25
2023-02-04T02:45:45.633Z,7.28
2023-02-04T02:48:13.099Z,7.82
2023-02-04T02:50:41.290Z,8.68
2023-02-04T02:53:16.675Z,8.15
2023-02-04T02:55:45.803Z,7.15
2023-02-04T02:58:34.642Z,7.97
2023-02-04T03:01:06.464Z,7.88
2023-02-04T03:04:02.765Z,7.90
2023-02-04T03:06:29.963Z,8.45
2023-02-04T03:08:57.840Z,10.77
2023-02-04T03:11:26.417Z,9.20
2023-02-04T03:13:54.257Z,9.40
2023-02-04T03:16:21.205Z,10.60
2023-02-04T03:18:49.552Z,8.60
2023-02-04T03:21:16.798Z,11.23
2023-02-04T03:23:43.769Z,11.60
2023-02-04T03:26:10.831Z,11.57
2023-02-04T03:28:42.481Z,14.15
2023-02-04T03:31:10.405Z,12.20
2023-02-04T03:33:37.458Z,10.35
2023-02-04T03:36:04.584Z,9.13
2023-02-04T03:38:31.505Z,9.90
2023-02-04T03:40:58.434Z,9.18
2023-02-04T03:43:25.374Z,9.55
2023-02-04T03:45:52.445Z,8.82
2023-02-04T03:48:19.495Z,8.27
2023-02-04T03:50:46.430Z,8.05
2023-02-04T03:53:13.608Z,7.85
2023-02-04T03:55:40.535Z,7.72
2023-02-04T03:58:07.613Z,8.57
2023-02-04T04:00:34.571Z,7.93
2023-02-04T04:03:01.603Z,7.78
2023-02-04T04:05:28.831Z,8.20
2023-02-04T04:07:56.085Z,7.47
2023-02-04T04:10:23.315Z,7.70
2023-02-04T04:12:50.359Z,8.18
2023-02-04T04:15:17.407Z,8.35
2023-02-04T04:17:45.032Z,9.55
2023-02-04T04:20:12.982Z,8.98
2023-02-04T04:22:40.268Z,8.82
2023-02-04T04:25:08.005Z,9.05
2023-02-04T04:27:34.920Z,8.95
2023-02-04T04:30:02.213Z,9.45
2023-02-04T04:32:29.168Z,8.95
2023-02-04T04:34:56.419Z,9.63
2023-02-04T04:37:23.287Z,9.85
2023-02-04T04:39:50.272Z,10.02
2023-02-04T04:42:17.177Z,9.75
2023-02-04T04:44:44.601Z,9.43
2023-02-04T04:47:11.713Z,10.07
2023-02-04T04:49:38.823Z,9.80
2023-02-04T04:52:05.789Z,8.32
2023-02-04T04:54:32.723Z,9.07
2023-02-04T04:56:59.620Z,8.50
2023-02-04T04:59:26.449Z,8.25
2023-02-04T05:01:53.377Z,8.48
2023-02-04T05:04:20.266Z,7.68
2023-02-04T05:06:47.192Z,7.43
2023-02-04T05:09:15.301Z,7.50
2023-02-04T05:11:42.181Z,7.38
2023-02-04T05:14:09.127Z,7.80
2023-02-04T05:16:36.079Z,7.85
2023-02-04T05:19:02.995Z,8.00
2023-02-04T05:21:29.831Z,7.80
2023-02-04T05:23:56.699Z,7.40
2023-02-04T05:26:30.261Z,7.53
2023-02-04T05:28:57.893Z,8.00
2023-02-04T05:31:24.904Z,8.15
2023-02-04T05:33:51.966Z,9.90
2023-02-04T05:36:18.851Z,10.45
2023-02-04T05:38:45.743Z,10.13
2023-02-04T05:41:13.038Z,11.13
2023-02-04T05:43:40.218Z,12.50
2023-02-04T05:46:07.177Z,12.20
2023-02-04T05:48:34.250Z,13.35
2023-02-04T05:51:01.095Z,14.75
2023-02-04T05:53:28.089Z,15.85
2023-02-04T05:55:54.986Z,15.45
2023-02-04T05:58:21.953Z,17.42
2023-02-04T06:00:48.790Z,18.23
2023-02-04T06:03:15.818Z,18.05
2023-02-04T06:05:44.361Z,19.02
2023-02-04T06:08:11.351Z,19.08
2023-02-04T06:10:38.224Z,19.35
2023-02-04T06:13:05.140Z,18.15
2023-02-04T06:15:31.974Z,19.67
2023-02-04T06:17:59.066Z,19.60
2023-02-04T06:20:26.165Z,18.45
2023-02-04T06:22:54.584Z,16.50
2023-02-04T06:25:22.713Z,17.52
2023-02-04T06:27:49.828Z,17.95
2023-02-04T06:30:17.475Z,16.50
2023-02-04T06:32:45.025Z,15.60
2023-02-04T06:35:13.293Z,17.55
2023-02-04T06:37:40.229Z,16.05
2023-02-04T06:40:08.789Z,15.57
2023-02-04T06:42:35.711Z,17.40
2023-02-04T06:45:03.035Z,15.65
2023-02-04T06:47:29.999Z,15.70
2023-02-04T06:49:56.890Z,15.98
2023-02-04T06:52:23.757Z,14.63
2023-02-04T06:54:50.662Z,14.70
2023-02-04T06:57:17.692Z,12.23
2023-02-04T06:59:44.629Z,12.55
2023-02-04T07:02:12.592Z,12.43
2023-02-04T07:04:39.489Z,12.18
2023-02-04T07:07:06.458Z,11.05
2023-02-04T07:09:33.311Z,11.32
2023-02-04T07:12:00.275Z,12.68
2023-02-04T07:14:27.227Z,10.95
2023-02-04T07:16:54.151Z,11.02
2023-02-04T07:19:21.363Z,12.52
2023-02-04T07:21:48.308Z,11.85
2023-02-04T07:24:15.205Z,11.07
2023-02-04T07:26:42.106Z,11.18
2023-02-04T07:29:17.316Z,10.57
2023-02-04T07:31:48.176Z,12.70
2023-02-04T07:34:15.851Z,14.32
2023-02-04T07:36:42.858Z,13.50
2023-02-04T07:39:10.210Z,13.02
2023-02-04T07:41:37.402Z,14.70
2023-02-04T07:44:04.765Z,16.35
2023-02-04T07:46:31.862Z,11.32
2023-02-04T07:48:58.840Z,14.85
2023-02-04T07:51:27.760Z,14.30
2023-02-04T07:53:55.929Z,15.75
2023-02-04T07:56:23.221Z,15.27
2023-02-04T07:58:50.229Z,15.45
2023-02-04T08:01:17.187Z,15.98
2023-02-04T08:03:44.455Z,15.60
2023-02-04T08:06:11.523Z,15.48
2023-02-04T08:08:38.431Z,15.23
2023-02-04T08:11:05.646Z,15.65
2023-02-04T08:13:32.677Z,19.27
2023-02-04T08:15:59.648Z,18.50
2023-02-04T08:18:26.571Z,17.10
2023-02-04T08:20:53.548Z,16.83
2023-02-04T08:23:20.592Z,15.50
2023-02-04T08:25:47.636Z,13.30
2023-02-04T08:28:14.645Z,11.88
2023-02-04T08:30:41.651Z,14.07
2023-02-04T08:33:08.564Z,14.35
2023-02-04T08:35:35.470Z,10.60
2023-02-04T08:38:02.518Z,11.70
2023-02-04T08:40:29.673Z,10.77
2023-02-04T08:42:56.632Z,12.50
2023-02-04T08:45:23.507Z,12.02
2023-02-04T08:47:50.384Z,12.27
2023-02-04T08:50:17.486Z,12.18
2023-02-04T08:52:44.681Z,9.77
2023-02-04T08:55:11.579Z,9.48
2023-02-04T08:57:38.506Z,8.93
2023-02-04T09:00:05.895Z,9.48
2023-02-04T09:02:32.767Z,9.07
2023-02-04T09:04:59.620Z,8.52
2023-02-04T09:07:26.478Z,9.55
2023-02-04T09:09:53.506Z,8.55
2023-02-04T09:12:20.481Z,7.70
2023-02-04T09:14:47.485Z,7.32
2023-02-04T09:17:14.407Z,7.25
2023-02-04T09:19:41.244Z,6.00
2023-02-04T09:22:08.168Z,6.57
2023-02-04T09:24:35.072Z,6.65
2023-02-04T09:27:01.933Z,6.28
2023-02-04T09:29:28.780Z,6.40
2023-02-04T09:31:55.817Z,7.40
2023-02-04T09:34:22.818Z,7.10
2023-02-04T09:36:50.243Z,8.27
2023-02-04T09:39:17.216Z,9.85
2023-02-04T09:41:44.261Z,8.50
2023-02-04T09:44:16.635Z,10.80
2023-02-04T09:46:50.643Z,10.13
2023-02-04T09:49:17.774Z,8.60
2023-02-04T09:51:47.009Z,7.47
2023-02-04T09:54:17.578Z,4.85
2023-02-04T09:56:45.001Z,5.53
2023-02-04T09:59:20.749Z,6.07
2023-02-04T10:02:26.842Z,4.70
2023-02-04T10:04:57.885Z,5.03
2023-02-04T10:07:26.855Z,4.15
2023-02-04T10:09:54.529Z,3.95
2023-02-04T10:12:21.801Z,3.88
2023-02-04T10:14:49.872Z,2.55
2023-02-04T10:17:21.445Z,4.68
2023-02-04T10:19:48.871Z,7.68
2023-02-04T10:22:21.652Z,9.48
2023-02-04T10:24:48.606Z,9.15
2023-02-04T10:27:16.437Z,8.88
2023-02-04T10:29:55.845Z,10.43
2023-02-04T10:32:31.667Z,9.40
2023-02-04T10:35:02.898Z,9.82
2023-02-04T10:37:30.833Z,10.13
2023-02-04T10:39:58.050Z,10.40
2023-02-04T10:42:30.380Z,12.55
2023-02-04T10:44:58.119Z,11.93
2023-02-04T10:47:29.081Z,11.20
2023-02-04T10:50:17.962Z,9.00
2023-02-04T10:52:49.709Z,10.52
2023-02-04T10:55:24.360Z,9.25
2023-02-04T10:57:55.331Z,7.13
2023-02-04T11:00:25.010Z,7.68
2023-02-04T11:03:30.931Z,6.32
2023-02-04T11:06:00.665Z,5.70
2023-02-04T11:08:34.424Z,5.90
2023-02-04T11:11:08.440Z,6.50
2023-02-04T11:13:50.336Z,6.22
2023-02-04T11:16:17.695Z,7.50
2023-02-04T11:19:01.363Z,8.13
2023-02-04T11:21:33.960Z,7.22
2023-02-04T11:24:24.432Z,7.75
2023-02-04T11:27:05.001Z,8.25
2023-02-04T11:29:38.937Z,7.78
2023-02-04T11:32:36.235Z,8.80
2023-02-04T11:35:08.017Z,8.15
2023-02-04T11:37:40.361Z,9.55
2023-02-04T11:40:25.688Z,9.95
2023-02-04T11:43:12.673Z,9.32
2023-02-04T11:45:42.223Z,10.93
2023-02-04T11:48:15.807Z,9.77
2023-02-04T11:50:42.982Z,11.40
2023-02-04T11:53:12.001Z,13.07
2023-02-04T11:55:47.285Z,13.55
2023-02-04T11:58:17.133Z,13.23
2023-02-04T12:00:44.708Z,14.68
2023-02-04T12:03:26.968Z,14.70
2023-02-04T12:05:57.493Z,13.27
2023-02-04T12:08:24.425Z,13.57
2023-02-04T12:11:11.418Z,13.77
2023-02-04T12:13:50.085Z,10.02
2023-02-04T12:16:17.047Z,8.18
2023-02-04T12:18:44.022Z,8.68
2023-02-04T12:21:11.030Z,6.90
2023-02-04T12:23:37.891Z,6.15
2023-02-04T12:26:04.994Z,7.07
2023-02-04T12:28:31.965Z,6.65
2023-02-04T12:30:58.925Z,5.35
2023-02-04T12:33:26.014Z,5.03
2023-02-04T12:35:53.324Z,5.20
2023-02-04T12:38:20.779Z,3.75
2023-02-04T12:40:47.730Z,2.95
2023-02-04T12:43:14.824Z,2.40
2023-02-04T12:45:45.814Z,2.83
2023-02-04T12:48:14.120Z,3.40
2023-02-04T12:50:41.608Z,2.83
2023-02-04T12:53:09.025Z,3.45
2023-02-04T12:55:36.435Z,3.38
2023-02-04T12:58:03.825Z,3.53
2023-02-04T13:00:31.210Z,3.97
2023-02-04T13:03:00.954Z,4.35
2023-02-04T13:05:28.253Z,3.50
2023-02-04T13:07:55.246Z,4.93
2023-02-04T13:10:24.057Z,4.70
2023-02-04T13:12:51.688Z,4.35
2023-02-04T13:15:18.837Z,3.70
2023-02-04T13:17:46.073Z,4.53
2023-02-04T13:20:13.301Z,5.05
2023-02-04T13:22:40.524Z,4.03
2023-02-04T13:25:07.677Z,4.10
2023-02-04T13:27:34.585Z,3.35
2023-02-04T13:30:01.741Z,3.47
2023-02-04T13:32:28.635Z,4.57
2023-02-04T13:34:55.520Z,3.80
2023-02-04T13:37:22.536Z,4.07
2023-02-04T13:39:49.426Z,4.07
2023-02-04T13:42:16.476Z,4.55
2023-02-04T13:44:43.502Z,4.75
2023-02-04T13:47:10.342Z,5.25
2023-02-04T13:49:37.240Z,5.32
2023-02-04T13:52:04.267Z,5.88
2023-02-04T13:54:31.218Z,5.57
2023-02-04T13:56:58.108Z,5.38
2023-02-04T13:59:25.068Z,6.20
2023-02-04T14:01:51.943Z,6.20
2023-02-04T14:04:18.836Z,6.68
2023-02-04T14:06:45.756Z,6.78
2023-02-04T14:09:13.209Z,7.72
2023-02-04T14:11:40.861Z,7.78
2023-02-04T14:14:07.989Z,8.10
2023-02-04T14:16:37.545Z,8.63
2023-02-04T14:19:05.685Z,8.65
2023-02-04T14:21:33.179Z,8.95
2023-02-04T14:24:00.672Z,8.35
2023-02-04T14:26:27.713Z,10.23
2023-02-04T14:28:54.610Z,7.70
2023-02-04T14:31:21.738Z,9.75
2023-02-04T14:33:50.359Z,8.57
2023-02-04T14:36:17.509Z,7.97
2023-02-04T14:38:44.498Z,9.82
2023-02-04T14:41:16.411Z,8.25
2023-02-04T14:43:43.526Z,9.43
2023-02-04T14:46:10.495Z,11.02
2023-02-04T14:48:37.424Z,11.13
2023-02-04T14:51:04.837Z,11.80
2023-02-04T14:53:31.802Z,9.85
2023-02-04T14:55:58.809Z,10.55
2023-02-04T14:58:27.817Z,11.50
2023-02-04T15:00:55.311Z,10.85
2023-02-04T15:03:22.430Z,8.85
2023-02-04T15:05:49.354Z,7.30
2023-02-04T15:08:16.200Z,8.50
2023-02-04T15:10:43.261Z,8.52
2023-02-04T15:13:10.298Z,10.23
2023-02-04T15:15:37.475Z,9.38
2023-02-04T15:18:04.433Z,10.45
2023-02-04T15:20:31.734Z,10.48
2023-02-04T15:23:00.659Z,9.90
2023-02-04T15:25:46.087Z,11.07
2023-02-04T15:28:50.163Z,11.38
2023-02-04T15:31:17.292Z,12.25
2023-02-04T15:33:44.306Z,13.50
2023-02-04T15:36:29.863Z,12.15
2023-02-04T15:39:15.180Z,9.80
2023-02-04T15:41:42.038Z,11.40
2023-02-04T15:44:27.364Z,11.30
2023-02-04T15:46:54.933Z,8.35
2023-02-04T15:49:21.846Z,10.15
2023-02-04T15:51:48.789Z,9.48
2023-02-04T15:54:15.820Z,9.70
2023-02-04T15:56:44.414Z,10.05
2023-02-04T15:59:11.636Z,10.43
2023-02-04T16:01:38.684Z,9.55
2023-02-04T16:04:05.626Z,7.20
2023-02-04T16:06:32.686Z,8.75
2023-02-04T16:08:59.637Z,8.43
2023-02-04T16:11:26.727Z,7.35
2023-02-04T16:13:53.673Z,6.93
2023-02-04T16:16:20.878Z,6.50
2023-02-04T16:18:47.914Z,6.55
2023-02-04T16:21:14.813Z,7.22
2023-02-04T16:23:43.499Z,7.10
2023-02-04T16:26:10.591Z,6.03
2023-02-04T16:28:37.489Z,6.55
2023-02-04T16:31:05.239Z,6.50
2023-02-04T16:33:32.521Z,6.75
2023-02-04T16:36:03.165Z,6.13
2023-02-04T16:38:31.311Z,5.82
2023-02-04T16:40:58.672Z,6.50
2023-02-04T16:43:25.670Z,6.65
2023-02-04T16:45:52.590Z,5.70
2023-02-04T16:48:19.570Z,5.22
2023-02-04T16:50:46.655Z,5.07
2023-02-04T16:53:16.288Z,5.88
2023-02-04T16:55:44.608Z,5.57
2023-02-04T16:58:13.045Z,5.78
2023-02-04T17:00:42.267Z,4.63
2023-02-04T17:03:10.264Z,4.43
2023-02-04T17:05:38.193Z,5.32
2023-02-04T17:08:06.008Z,5.38
2023-02-04T17:10:51.734Z,5.18
2023-02-04T17:13:18.867Z,4.88
2023-02-04T17:15:45.841Z,4.47
2023-02-04T17:18:12.747Z,4.22
2023-02-04T17:20:39.763Z,4.78
2023-02-04T17:23:06.738Z,4.75
2023-02-04T17:25:33.929Z,4.70
2023-02-04T17:28:01.214Z,4.90
2023-02-04T17:30:28.256Z,4.45
2023-02-04T17:32:55.168Z,4.70
2023-02-04T17:35:22.080Z,4.45
2023-02-04T17:37:49.053Z,5.03
2023-02-04T17:40:16.021Z,4.90
2023-02-04T17:42:43.113Z,5.25
2023-02-04T17:45:11.288Z,5.72
2023-02-04T17:47:41.534Z,4.85
2023-02-04T17:50:10.302Z,4.85
2023-02-04T17:52:38.107Z,4.13
2023-02-04T17:55:29.689Z,5.38
2023-02-04T17:57:59.794Z,4.88
2023-02-04T18:00:29.183Z,4.40
2023-02-04T18:02:56.629Z,5.22
2023-02-04T18:05:26.748Z,4.45
2023-02-04T18:08:00.486Z,3.25
2023-02-04T18:10:31.960Z,4.85
2023-02-04T18:13:00.476Z,5.60
2023-02-04T18:15:30.425Z,5.25
2023-02-04T18:18:02.272Z,4.63
2023-02-04T18:20:30.230Z,5.32
2023-02-04T18:23:02.800Z,4.90
2023-02-04T18:25:30.309Z,4.88
2023-02-04T18:28:02.984Z,5.85
2023-02-04T18:30:29.981Z,4.70
2023-02-04T18:32:57.034Z,4.55
2023-02-04T18:35:44.182Z,5.03
2023-02-04T18:38:32.561Z,3.53
2023-02-04T18:41:20.607Z,4.18
2023-02-04T18:43:52.970Z,4.20
2023-02-04T18:46:28.373Z,3.53
2023-02-04T18:51:34.384Z,3.40
2023-02-04T18:54:37.308Z,4.60
2023-02-04T18:57:28.813Z,4.05
2023-02-04T19:00:27.751Z,4.53
2023-02-04T19:02:58.247Z,3.10
2023-02-04T19:05:35.507Z,4.05
2023-02-04T19:08:05.235Z,4.45
2023-02-04T19:10:40.734Z,5.07
2023-02-04T19:15:45.417Z,5.20
2023-02-04T19:18:24.836Z,5.25
2023-02-04T19:20:52.489Z,5.30
2023-02-04T19:23:22.569Z,5.90
2023-02-04T19:25:52.277Z,6.40
2023-02-04T19:28:37.302Z,7.15
2023-02-04T19:31:08.230Z,6.70
2023-02-04T19:33:42.635Z,6.93
2023-02-04T19:36:27.716Z,6.55
2023-02-04T19:39:39.902Z,6.53
2023-02-04T19:42:23.425Z,7.68
2023-02-04T19:44:51.742Z,7.30
2023-02-04T19:47:26.076Z,6.93
2023-02-04T19:50:26.920Z,6.70
2023-02-04T19:52:59.856Z,8.00
2023-02-04T19:55:36.320Z,6.90
2023-02-04T19:58:36.608Z,7.28
2023-02-04T20:01:06.152Z,7.03
2023-02-04T20:03:41.821Z,7.28
2023-02-04T20:06:30.326Z,6.70
2023-02-04T20:09:00.147Z,7.70
2023-02-04T20:11:33.284Z,7.82
2023-02-04T20:14:13.917Z,8.05
2023-02-04T20:16:46.976Z,8.02
2023-02-04T20:19:17.676Z,6.65
2023-02-04T20:21:59.318Z,8.98
2023-02-04T20:24:34.752Z,8.90
2023-02-04T20:29:40.592Z,8.35
2023-02-04T20:32:27.099Z,8.52
2023-02-04T20:35:12.659Z,9.07
2023-02-04T20:37:43.924Z,9.98
2023-02-04T20:40:16.875Z,9.55
2023-02-04T20:42:48.094Z,10.35
2023-02-04T20:45:23.384Z,10.15
2023-02-04T20:50:41.372Z,10.05
2023-02-04T20:53:20.615Z,9.07
2023-02-04T20:55:53.402Z,10.38
2023-02-04T20:58:27.527Z,10.20
2023-02-04T21:00:56.133Z,10.52
2023-02-04T21:03:26.288Z,9.93
2023-02-04T21:05:55.013Z,9.60
2023-02-04T21:08:35.641Z,10.48
2023-02-04T21:11:03.006Z,10.23
2023-02-04T21:13:30.568Z,9.48
2023-02-04T21:15:58.025Z,8.43
2023-02-04T21:18:25.281Z,8.07
2023-02-04T21:20:52.325Z,7.82
2023-02-04T21:23:19.906Z,7.47
2023-02-04T21:25:47.061Z,7.38
2023-02-04T21:28:14.510Z,7.40
2023-02-04T21:30:41.534Z,6.93
2023-02-04T21:33:10.337Z,7.75
2023-02-04T21:35:38.350Z,7.30
2023-02-04T21:38:05.923Z,6.72
2023-02-04T21:40:34.637Z,6.28
2023-02-04T21:43:03.096Z,7.05
2023-02-04T21:45:30.105Z,7.05
2023-02-04T21:47:57.097Z,7.57
2023-02-04T21:50:24.150Z,6.40
2023-02-04T21:52:51.464Z,6.72
2023-02-04T21:55:21.563Z,6.35
2023-02-04T21:57:50.000Z,5.45
2023-02-04T22:00:18.910Z,5.05
2023-02-04T22:02:46.242Z,5.63
2023-02-04T22:05:13.170Z,4.57
2023-02-04T22:07:40.670Z,4.70
2023-02-04T22:10:10.995Z,4.78
2023-02-04T22:12:37.969Z,4.25
2023-02-04T22:15:06.246Z,4.60
2023-02-04T22:17:33.683Z,4.03
2023-02-04T22:20:00.688Z,3.78
2023-02-04T22:22:27.826Z,4.13
2023-02-04T22:24:54.730Z,3.88
2023-02-04T22:27:21.800Z,2.55
2023-02-04T22:29:48.675Z,3.80
2023-02-04T22:32:15.603Z,3.53
2023-02-04T22:34:42.440Z,3.40
2023-02-04T22:37:09.418Z,4.05
2023-02-04T22:39:36.416Z,3.38
2023-02-04T22:42:03.662Z,3.60
2023-02-04T22:44:30.552Z,3.47
2023-02-04T22:46:57.432Z,3.00
2023-02-04T22:49:24.352Z,3.08
2023-02-04T22:51:51.245Z,3.72
2023-02-04T22:54:18.283Z,2.42
2023-02-04T22:56:45.232Z,3.03
2023-02-04T22:59:12.237Z,3.22
2023-02-04T23:01:39.192Z,3.38
2023-02-04T23:04:06.128Z,3.60
2023-02-04T23:06:33.576Z,4.53
2023-02-04T23:09:00.530Z,4.05
2023-02-04T23:11:27.441Z,2.92
2023-02-04T23:13:54.396Z,3.67
2023-02-04T23:16:21.440Z,3.92
2023-02-04T23:18:48.354Z,3.63
2023-02-04T23:21:15.195Z,3.65
2023-02-04T23:23:42.591Z,3.58
2023-02-04T23:26:09.728Z,4.03
2023-02-04T23:28:36.613Z,4.28
2023-02-04T23:31:03.583Z,2.25
2023-02-04T23:33:30.576Z,5.35
2023-02-04T23:35:57.698Z,5.60
2023-02-04T23:38:24.944Z,5.43
2023-02-04T23:40:52.065Z,4.38
2023-02-04T23:43:19.222Z,3.30
2023-02-04T23:45:46.227Z,3.38
2023-02-04T23:48:13.317Z,4.05
2023-02-04T23:50:40.329Z,4.18
2023-02-04T23:53:07.189Z,4.40
2023-02-04T23:55:34.720Z,3.05
2023-02-04T23:58:01.806Z,4.40
